sensor_id;sensor_type;location;lat;lon;timestamp;pressure;altitude;pressure_sealevel;temperature;humidity
62712;BME280;48772;55.586;37.730;2023-05-14T00:00:15;99785.53;;;15.11;99.02
62712;BME280;48772;55.586;37.730;2023-05-14T00:02:41;99778.59;;;15.08;98.91
62712;BME280;48772;55.586;37.730;2023-05-14T00:05:08;99778.38;;;15.02;100.00
62712;BME280;48772;55.586;37.730;2023-05-14T00:07:34;99761.91;;;14.87;100.00
62712;BME280;48772;55.586;37.730;2023-05-14T00:10:00;99791.25;;;14.98;100.00
62712;BME280;48772;55.586;37.730;2023-05-14T00:12:27;99753.47;;;14.73;100.00
62712;BME280;48772;55.586;37.730;2023-05-14T00:14:53;99784.50;;;14.85;100.00
62712;BME280;48772;55.586;37.730;2023-05-14T00:17:19;99794.13;;;14.87;100.00
62712;BME280;48772;55.586;37.730;2023-05-14T00:19:45;99769.31;;;14.66;100.00
62712;BME280;48772;55.586;37.730;2023-05-14T00:22:10;99790.91;;;14.74;100.00
62712;BME280;48772;55.586;37.730;2023-05-14T00:24:36;99791.03;;;14.73;100.00
62712;BME280;48772;55.586;37.730;2023-05-14T00:27:02;99789.78;;;14.67;100.00
62712;BME280;48772;55.586;37.730;2023-05-14T00:29:28;99775.00;;;14.54;100.00
62712;BME280;48772;55.586;37.730;2023-05-14T00:31:54;99765.97;;;14.45;100.00
62712;BME280;48772;55.586;37.730;2023-05-14T00:34:20;99796.44;;;14.63;100.00
62712;BME280;48772;55.586;37.730;2023-05-14T00:36:46;99802.38;;;14.57;100.00
62712;BME280;48772;55.586;37.730;2023-05-14T00:39:13;99792.53;;;14.48;100.00
62712;BME280;48772;55.586;37.730;2023-05-14T00:41:39;99796.78;;;14.41;100.00
62712;BME280;48772;55.586;37.730;2023-05-14T00:44:05;99800.00;;;14.35;100.00
62712;BME280;48772;55.586;37.730;2023-05-14T00:46:30;99801.88;;;14.35;100.00
62712;BME280;48772;55.586;37.730;2023-05-14T00:48:57;99809.78;;;14.36;100.00
62712;BME280;48772;55.586;37.730;2023-05-14T00:51:23;99775.88;;;14.16;100.00
62712;BME280;48772;55.586;37.730;2023-05-14T00:53:50;99804.13;;;14.30;100.00
62712;BME280;48772;55.586;37.730;2023-05-14T00:56:17;99798.72;;;14.20;100.00
62712;BME280;48772;55.586;37.730;2023-05-14T00:58:43;99802.16;;;14.22;100.00
62712;BME280;48772;55.586;37.730;2023-05-14T01:01:09;99799.59;;;14.11;100.00
62712;BME280;48772;55.586;37.730;2023-05-14T01:03:36;99785.88;;;13.95;100.00
62712;BME280;48772;55.586;37.730;2023-05-14T01:11:48;99800.16;;;14.05;100.00
62712;BME280;48772;55.586;37.730;2023-05-14T01:14:49;99814.69;;;14.12;100.00
62712;BME280;48772;55.586;37.730;2023-05-14T01:17:17;99805.66;;;13.94;100.00
62712;BME280;48772;55.586;37.730;2023-05-14T01:19:46;99783.91;;;13.78;100.00
62712;BME280;48772;55.586;37.730;2023-05-14T01:22:13;99804.97;;;13.92;100.00
62712;BME280;48772;55.586;37.730;2023-05-14T01:24:39;99815.38;;;13.95;100.00
62712;BME280;48772;55.586;37.730;2023-05-14T01:32:27;99807.19;;;13.87;100.00
62712;BME280;48772;55.586;37.730;2023-05-14T01:34:55;99826.25;;;13.94;100.00
62712;BME280;48772;55.586;37.730;2023-05-14T01:37:23;99830.06;;;13.91;100.00
62712;BME280;48772;55.586;37.730;2023-05-14T01:39:50;99806.63;;;13.74;100.00
62712;BME280;48772;55.586;37.730;2023-05-14T01:42:16;99811.13;;;13.74;100.00
62712;BME280;48772;55.586;37.730;2023-05-14T01:44:42;99843.59;;;13.90;100.00
62712;BME280;48772;55.586;37.730;2023-05-14T01:47:08;99827.94;;;13.85;100.00
62712;BME280;48772;55.586;37.730;2023-05-14T01:49:34;99837.13;;;13.92;100.00
62712;BME280;48772;55.586;37.730;2023-05-14T01:52:01;99816.22;;;13.77;100.00
62712;BME280;48772;55.586;37.730;2023-05-14T01:54:27;99816.09;;;13.78;100.00
62712;BME280;48772;55.586;37.730;2023-05-14T01:56:53;99845.00;;;13.94;100.00
62712;BME280;48772;55.586;37.730;2023-05-14T01:59:19;99837.97;;;13.93;100.00
62712;BME280;48772;55.586;37.730;2023-05-14T02:01:45;99841.34;;;13.95;100.00
62712;BME280;48772;55.586;37.730;2023-05-14T02:04:11;99791.34;;;13.56;100.00
62712;BME280;48772;55.586;37.730;2023-05-14T02:06:40;99849.81;;;13.90;100.00
62712;BME280;48772;55.586;37.730;2023-05-14T02:09:06;99842.75;;;13.89;100.00
62712;BME280;48772;55.586;37.730;2023-05-14T02:11:32;99812.00;;;13.74;100.00
62712;BME280;48772;55.586;37.730;2023-05-14T02:13:58;99831.44;;;13.86;100.00
62712;BME280;48772;55.586;37.730;2023-05-14T02:16:24;99845.59;;;13.97;100.00
62712;BME280;48772;55.586;37.730;2023-05-14T02:18:50;99827.50;;;13.80;100.00
62712;BME280;48772;55.586;37.730;2023-05-14T02:21:16;99844.31;;;13.92;100.00
62712;BME280;48772;55.586;37.730;2023-05-14T02:23:42;99846.28;;;13.90;100.00
62712;BME280;48772;55.586;37.730;2023-05-14T02:26:09;99853.78;;;13.96;100.00
62712;BME280;48772;55.586;37.730;2023-05-14T02:28:35;99826.09;;;13.86;100.00
62712;BME280;48772;55.586;37.730;2023-05-14T02:31:01;99852.09;;;14.04;100.00
62712;BME280;48772;55.586;37.730;2023-05-14T02:33:26;99857.31;;;14.06;100.00
62712;BME280;48772;55.586;37.730;2023-05-14T02:35:53;99866.50;;;14.13;100.00
62712;BME280;48772;55.586;37.730;2023-05-14T02:38:19;99870.59;;;14.07;100.00
62712;BME280;48772;55.586;37.730;2023-05-14T02:40:45;99860.69;;;14.08;100.00
62712;BME280;48772;55.586;37.730;2023-05-14T02:43:10;99860.41;;;14.01;100.00
62712;BME280;48772;55.586;37.730;2023-05-14T02:45:36;99868.75;;;14.08;100.00
62712;BME280;48772;55.586;37.730;2023-05-14T02:48:02;99866.91;;;13.99;100.00
62712;BME280;48772;55.586;37.730;2023-05-14T02:50:29;99856.31;;;13.97;100.00
62712;BME280;48772;55.586;37.730;2023-05-14T02:52:55;99867.03;;;14.07;100.00
62712;BME280;48772;55.586;37.730;2023-05-14T02:55:20;99863.38;;;14.08;100.00
62712;BME280;48772;55.586;37.730;2023-05-14T02:57:47;99848.97;;;13.99;100.00
62712;BME280;48772;55.586;37.730;2023-05-14T03:00:13;99882.72;;;14.11;100.00
62712;BME280;48772;55.586;37.730;2023-05-14T03:02:39;99874.69;;;14.11;100.00
62712;BME280;48772;55.586;37.730;2023-05-14T03:05:05;99882.88;;;14.19;100.00
62712;BME280;48772;55.586;37.730;2023-05-14T03:07:31;99889.69;;;14.23;100.00
62712;BME280;48772;55.586;37.730;2023-05-14T03:09:57;99879.47;;;14.17;100.00
62712;BME280;48772;55.586;37.730;2023-05-14T03:12:25;99878.50;;;14.18;100.00
62712;BME280;48772;55.586;37.730;2023-05-14T03:14:51;99863.38;;;14.17;100.00
62712;BME280;48772;55.586;37.730;2023-05-14T03:17:17;99864.53;;;14.24;100.00
62712;BME280;48772;55.586;37.730;2023-05-14T03:19:43;99889.41;;;14.45;100.00
62712;BME280;48772;55.586;37.730;2023-05-14T03:22:08;99863.44;;;14.27;100.00
62712;BME280;48772;55.586;37.730;2023-05-14T03:24:37;99853.66;;;14.16;100.00
62712;BME280;48772;55.586;37.730;2023-05-14T03:27:04;99894.91;;;14.53;100.00
62712;BME280;48772;55.586;37.730;2023-05-14T03:29:29;99883.34;;;14.43;100.00
62712;BME280;48772;55.586;37.730;2023-05-14T03:31:55;99869.34;;;14.49;100.00
62712;BME280;48772;55.586;37.730;2023-05-14T03:34:21;99898.03;;;14.58;100.00
62712;BME280;48772;55.586;37.730;2023-05-14T03:36:47;99882.22;;;14.46;100.00
62712;BME280;48772;55.586;37.730;2023-05-14T03:39:13;99892.78;;;14.66;100.00
62712;BME280;48772;55.586;37.730;2023-05-14T03:41:46;99883.47;;;14.61;100.00
62712;BME280;48772;55.586;37.730;2023-05-14T03:44:12;99898.28;;;14.74;100.00
62712;BME280;48772;55.586;37.730;2023-05-14T03:46:39;99891.63;;;14.78;100.00
62712;BME280;48772;55.586;37.730;2023-05-14T03:49:05;99885.13;;;14.81;100.00
62712;BME280;48772;55.586;37.730;2023-05-14T03:51:31;99891.09;;;14.75;100.00
62712;BME280;48772;55.586;37.730;2023-05-14T03:53:57;99903.34;;;14.87;100.00
62712;BME280;48772;55.586;37.730;2023-05-14T03:56:23;99875.66;;;14.77;100.00
62712;BME280;48772;55.586;37.730;2023-05-14T03:58:49;99874.69;;;14.87;100.00
62712;BME280;48772;55.586;37.730;2023-05-14T04:01:15;99899.38;;;15.00;100.00
62712;BME280;48772;55.586;37.730;2023-05-14T04:03:41;99887.22;;;14.96;100.00
62712;BME280;48772;55.586;37.730;2023-05-14T04:06:07;99900.63;;;15.06;100.00
62712;BME280;48772;55.586;37.730;2023-05-14T04:08:34;99908.00;;;14.94;100.00
62712;BME280;48772;55.586;37.730;2023-05-14T04:11:00;99882.31;;;14.82;100.00
62712;BME280;48772;55.586;37.730;2023-05-14T04:13:25;99908.78;;;15.14;100.00
62712;BME280;48772;55.586;37.730;2023-05-14T04:15:51;99916.97;;;15.31;100.00
62712;BME280;48772;55.586;37.730;2023-05-14T04:18:17;99903.41;;;15.23;100.00
62712;BME280;48772;55.586;37.730;2023-05-14T04:20:43;99899.13;;;15.30;100.00
62712;BME280;48772;55.586;37.730;2023-05-14T04:23:09;99909.59;;;15.33;100.00
62712;BME280;48772;55.586;37.730;2023-05-14T04:25:35;99904.22;;;15.33;100.00
62712;BME280;48772;55.586;37.730;2023-05-14T04:28:01;99916.94;;;15.50;100.00
62712;BME280;48772;55.586;37.730;2023-05-14T04:30:27;99913.53;;;15.48;100.00
62712;BME280;48772;55.586;37.730;2023-05-14T04:32:53;99917.06;;;15.49;100.00
62712;BME280;48772;55.586;37.730;2023-05-14T04:35:19;99899.69;;;15.43;100.00
62712;BME280;48772;55.586;37.730;2023-05-14T04:37:45;99911.47;;;15.69;100.00
62712;BME280;48772;55.586;37.730;2023-05-14T04:40:11;99910.31;;;15.72;100.00
62712;BME280;48772;55.586;37.730;2023-05-14T04:42:37;99898.41;;;15.74;100.00
62712;BME280;48772;55.586;37.730;2023-05-14T04:45:05;99917.34;;;15.82;100.00
62712;BME280;48772;55.586;37.730;2023-05-14T04:47:32;99912.41;;;15.78;100.00
62712;BME280;48772;55.586;37.730;2023-05-14T04:49:58;99919.38;;;15.71;100.00
62712;BME280;48772;55.586;37.730;2023-05-14T04:52:24;99913.94;;;15.80;100.00
62712;BME280;48772;55.586;37.730;2023-05-14T04:54:50;99893.97;;;15.83;100.00
62712;BME280;48772;55.586;37.730;2023-05-14T04:57:16;99914.03;;;16.15;100.00
62712;BME280;48772;55.586;37.730;2023-05-14T04:59:41;99887.72;;;16.09;100.00
62712;BME280;48772;55.586;37.730;2023-05-14T05:02:07;99899.88;;;16.13;100.00
62712;BME280;48772;55.586;37.730;2023-05-14T05:04:33;99896.31;;;16.13;100.00
62712;BME280;48772;55.586;37.730;2023-05-14T05:06:59;99923.50;;;16.37;100.00
62712;BME280;48772;55.586;37.730;2023-05-14T05:09:25;99916.41;;;16.46;100.00
62712;BME280;48772;55.586;37.730;2023-05-14T05:11:51;99899.75;;;16.50;100.00
62712;BME280;48772;55.586;37.730;2023-05-14T05:14:16;99917.00;;;16.75;100.00
62712;BME280;48772;55.586;37.730;2023-05-14T05:16:42;99918.38;;;16.61;100.00
62712;BME280;48772;55.586;37.730;2023-05-14T05:19:09;99911.53;;;16.49;100.00
62712;BME280;48772;55.586;37.730;2023-05-14T05:21:35;99924.16;;;16.66;100.00
62712;BME280;48772;55.586;37.730;2023-05-14T05:24:01;99911.53;;;16.49;100.00
62712;BME280;48772;55.586;37.730;2023-05-14T05:26:27;99918.38;;;16.79;100.00
62712;BME280;48772;55.586;37.730;2023-05-14T05:28:53;99914.88;;;16.86;100.00
62712;BME280;48772;55.586;37.730;2023-05-14T05:31:18;99905.88;;;16.95;100.00
62712;BME280;48772;55.586;37.730;2023-05-14T05:33:44;99916.66;;;17.21;99.59
62712;BME280;48772;55.586;37.730;2023-05-14T05:36:11;99920.09;;;17.31;98.94
62712;BME280;48772;55.586;37.730;2023-05-14T05:38:36;99921.69;;;17.41;97.28
62712;BME280;48772;55.586;37.730;2023-05-14T05:41:02;99916.41;;;17.32;95.23
62712;BME280;48772;55.586;37.730;2023-05-14T05:43:28;99919.34;;;17.21;96.37
62712;BME280;48772;55.586;37.730;2023-05-14T05:45:54;99909.84;;;17.34;100.00
62712;BME280;48772;55.586;37.730;2023-05-14T05:48:20;99907.81;;;17.62;92.96
62712;BME280;48772;55.586;37.730;2023-05-14T05:50:47;99902.53;;;17.78;91.04
62712;BME280;48772;55.586;37.730;2023-05-14T05:53:13;99900.25;;;17.99;87.94
62712;BME280;48772;55.586;37.730;2023-05-14T05:55:41;99890.25;;;17.91;87.31
62712;BME280;48772;55.586;37.730;2023-05-14T05:58:25;99885.19;;;17.96;86.89
62712;BME280;48772;55.586;37.730;2023-05-14T06:00:51;99901.66;;;17.77;84.76
62712;BME280;48772;55.586;37.730;2023-05-14T06:03:17;99911.84;;;17.91;82.46
62712;BME280;48772;55.586;37.730;2023-05-14T06:05:43;99910.97;;;18.40;80.07
62712;BME280;48772;55.586;37.730;2023-05-14T06:08:09;99908.97;;;18.50;75.84
62712;BME280;48772;55.586;37.730;2023-05-14T06:10:35;99911.03;;;18.56;74.24
62712;BME280;48772;55.586;37.730;2023-05-14T06:13:02;99878.59;;;18.64;73.40
62712;BME280;48772;55.586;37.730;2023-05-14T06:15:27;99890.25;;;18.89;72.85
62712;BME280;48772;55.586;37.730;2023-05-14T06:17:53;99910.50;;;19.01;71.56
62712;BME280;48772;55.586;37.730;2023-05-14T06:20:19;99905.47;;;18.98;70.06
62712;BME280;48772;55.586;37.730;2023-05-14T06:22:45;99904.13;;;18.94;67.02
62712;BME280;48772;55.586;37.730;2023-05-14T06:25:11;99897.50;;;19.04;65.03
62712;BME280;48772;55.586;37.730;2023-05-14T06:27:37;99888.72;;;18.62;64.53
62712;BME280;48772;55.586;37.730;2023-05-14T06:30:03;99882.84;;;18.91;61.62
62712;BME280;48772;55.586;37.730;2023-05-14T06:32:31;99891.25;;;18.96;59.79
62712;BME280;48772;55.586;37.730;2023-05-14T06:34:57;99907.28;;;19.13;59.64
62712;BME280;48772;55.586;37.730;2023-05-14T06:37:23;99893.78;;;19.13;57.94
62712;BME280;48772;55.586;37.730;2023-05-14T06:39:48;99886.78;;;19.51;57.38
62712;BME280;48772;55.586;37.730;2023-05-14T06:42:15;99891.16;;;19.52;55.53
62712;BME280;48772;55.586;37.730;2023-05-14T06:44:41;99877.38;;;19.39;57.49
62712;BME280;48772;55.586;37.730;2023-05-14T06:47:07;99861.88;;;18.77;59.40
62712;BME280;48772;55.586;37.730;2023-05-14T06:49:34;99900.38;;;18.63;60.99
62712;BME280;48772;55.586;37.730;2023-05-14T06:52:00;99912.81;;;18.32;61.45
62712;BME280;48772;55.586;37.730;2023-05-14T06:54:26;99892.47;;;18.77;61.20
62712;BME280;48772;55.586;37.730;2023-05-14T06:56:52;99888.72;;;18.62;60.78
62712;BME280;48772;55.586;37.730;2023-05-14T06:59:18;99897.53;;;18.88;60.34
62712;BME280;48772;55.586;37.730;2023-05-14T07:01:44;99906.81;;;19.02;58.95
62712;BME280;48772;55.586;37.730;2023-05-14T07:04:10;99887.72;;;18.71;58.66
62712;BME280;48772;55.586;37.730;2023-05-14T07:06:35;99916.75;;;18.69;60.01
62712;BME280;48772;55.586;37.730;2023-05-14T07:09:01;99902.91;;;19.12;54.72
62712;BME280;48772;55.586;37.730;2023-05-14T07:11:28;99906.81;;;19.34;52.93
62712;BME280;48772;55.586;37.730;2023-05-14T07:14:26;99896.34;;;18.99;52.03
62712;BME280;48772;55.586;37.730;2023-05-14T07:16:51;99904.09;;;19.34;51.47
62712;BME280;48772;55.586;37.730;2023-05-14T07:19:17;99901.41;;;19.34;51.33
62712;BME280;48772;55.586;37.730;2023-05-14T07:21:43;99893.13;;;18.95;50.67
62712;BME280;48772;55.586;37.730;2023-05-14T07:24:09;99912.88;;;18.96;53.03
62712;BME280;48772;55.586;37.730;2023-05-14T07:26:35;99901.22;;;19.82;50.53
62712;BME280;48772;55.586;37.730;2023-05-14T07:29:01;99919.06;;;19.99;49.37
62712;BME280;48772;55.586;37.730;2023-05-14T07:31:27;99923.91;;;19.73;49.52
62712;BME280;48772;55.586;37.730;2023-05-14T07:33:53;99915.25;;;19.31;50.36
62712;BME280;48772;55.586;37.730;2023-05-14T07:36:19;99926.72;;;19.17;49.85
62712;BME280;48772;55.586;37.730;2023-05-14T07:38:45;99920.16;;;19.03;49.76
62712;BME280;48772;55.586;37.730;2023-05-14T07:41:11;99923.03;;;18.94;50.21
62712;BME280;48772;55.586;37.730;2023-05-14T07:43:36;99925.56;;;19.03;50.10
62712;BME280;48772;55.586;37.730;2023-05-14T07:46:03;99934.50;;;18.96;50.60
62712;BME280;48772;55.586;37.730;2023-05-14T07:48:29;99932.16;;;18.85;51.22
62712;BME280;48772;55.586;37.730;2023-05-14T07:50:58;99897.88;;;18.77;50.29
62712;BME280;48772;55.586;37.730;2023-05-14T07:53:28;99842.47;;;18.57;49.83
62712;BME280;48772;55.586;37.730;2023-05-14T07:55:54;99846.69;;;18.52;49.31
62712;BME280;48772;55.586;37.730;2023-05-14T07:58:21;99917.28;;;19.05;49.00
62712;BME280;48772;55.586;37.730;2023-05-14T08:00:48;99921.00;;;19.20;48.76
62712;BME280;48772;55.586;37.730;2023-05-14T08:03:14;99882.31;;;19.11;48.98
62712;BME280;48772;55.586;37.730;2023-05-14T08:05:40;99886.50;;;19.38;47.78
62712;BME280;48772;55.586;37.730;2023-05-14T08:08:06;99912.81;;;19.60;47.19
62712;BME280;48772;55.586;37.730;2023-05-14T08:10:32;99890.72;;;19.16;48.28
62712;BME280;48772;55.586;37.730;2023-05-14T08:12:58;99928.59;;;19.24;49.23
62712;BME280;48772;55.586;37.730;2023-05-14T08:15:31;99881.13;;;18.74;48.64
62712;BME280;48772;55.586;37.730;2023-05-14T08:17:57;99905.09;;;19.01;49.56
62712;BME280;48772;55.586;37.730;2023-05-14T08:20:31;99931.59;;;19.53;49.12
62712;BME280;48772;55.586;37.730;2023-05-14T08:22:59;99913.91;;;19.27;49.19
62712;BME280;48772;55.586;37.730;2023-05-14T08:25:26;99929.09;;;19.12;49.82
62712;BME280;48772;55.586;37.730;2023-05-14T08:27:52;99917.28;;;19.05;50.74
62712;BME280;48772;55.586;37.730;2023-05-14T08:30:19;99933.50;;;19.05;51.42
62712;BME280;48772;55.586;37.730;2023-05-14T08:32:45;99893.28;;;18.78;51.38
62712;BME280;48772;55.586;37.730;2023-05-14T08:35:11;99918.44;;;19.02;50.51
62712;BME280;48772;55.586;37.730;2023-05-14T08:37:37;99920.66;;;18.91;51.41
62712;BME280;48772;55.586;37.730;2023-05-14T08:40:03;99900.41;;;18.95;51.10
62712;BME280;48772;55.586;37.730;2023-05-14T08:42:33;99918.78;;;19.23;51.04
62712;BME280;48772;55.586;37.730;2023-05-14T08:45:02;99889.03;;;19.23;49.56
62712;BME280;48772;55.586;37.730;2023-05-14T08:47:32;99928.88;;;20.08;48.55
62712;BME280;48772;55.586;37.730;2023-05-14T08:50:05;99913.75;;;20.22;47.66
62712;BME280;48772;55.586;37.730;2023-05-14T08:52:35;99931.06;;;19.58;47.22
62712;BME280;48772;55.586;37.730;2023-05-14T08:55:04;99923.25;;;19.71;48.52
62712;BME280;48772;55.586;37.730;2023-05-14T08:57:32;99916.19;;;20.01;47.68
62712;BME280;48772;55.586;37.730;2023-05-14T08:59:59;99867.13;;;19.65;47.39
62712;BME280;48772;55.586;37.730;2023-05-14T09:02:29;99920.97;;;19.91;47.34
62712;BME280;48772;55.586;37.730;2023-05-14T09:05:02;99919.41;;;20.04;47.67
62712;BME280;48772;55.586;37.730;2023-05-14T09:07:30;99921.75;;;20.15;46.63
62712;BME280;48772;55.586;37.730;2023-05-14T09:09:56;99910.72;;;20.09;46.85
62712;BME280;48772;55.586;37.730;2023-05-14T09:12:23;99917.41;;;21.04;46.04
62712;BME280;48772;55.586;37.730;2023-05-14T09:14:49;99891.66;;;21.66;44.35
62712;BME280;48772;55.586;37.730;2023-05-14T09:17:16;99915.91;;;21.39;43.21
62712;BME280;48772;55.586;37.730;2023-05-14T09:19:43;99916.28;;;21.13;44.52
62712;BME280;48772;55.586;37.730;2023-05-14T09:22:12;99896.19;;;20.85;44.02
62712;BME280;48772;55.586;37.730;2023-05-14T09:24:38;99908.97;;;20.54;44.71
62712;BME280;48772;55.586;37.730;2023-05-14T09:27:05;99906.44;;;20.30;45.61
62712;BME280;48772;55.586;37.730;2023-05-14T09:29:31;99904.13;;;20.19;45.71
62712;BME280;48772;55.586;37.730;2023-05-14T09:31:58;99922.13;;;20.04;46.43
62712;BME280;48772;55.586;37.730;2023-05-14T09:34:29;99902.81;;;19.99;45.69
62712;BME280;48772;55.586;37.730;2023-05-14T09:37:06;99911.94;;;20.06;45.36
62712;BME280;48772;55.586;37.730;2023-05-14T09:39:34;99907.72;;;20.04;45.43
62712;BME280;48772;55.586;37.730;2023-05-14T09:42:01;99908.22;;;20.15;45.48
62712;BME280;48772;55.586;37.730;2023-05-14T09:44:27;99896.59;;;20.29;45.13
62712;BME280;48772;55.586;37.730;2023-05-14T09:46:54;99905.88;;;21.02;43.78
62712;BME280;48772;55.586;37.730;2023-05-14T09:49:20;99892.22;;;20.96;43.15
62712;BME280;48772;55.586;37.730;2023-05-14T09:51:47;99900.53;;;20.94;43.76
62712;BME280;48772;55.586;37.730;2023-05-14T09:54:13;99879.94;;;20.63;43.45
62712;BME280;48772;55.586;37.730;2023-05-14T09:56:39;99906.53;;;20.82;42.26
62712;BME280;48772;55.586;37.730;2023-05-14T09:59:05;99873.19;;;20.81;42.95
62712;BME280;48772;55.586;37.730;2023-05-14T10:01:31;99917.13;;;21.65;41.83
62712;BME280;48772;55.586;37.730;2023-05-14T10:03:58;99890.06;;;21.86;42.42
62712;BME280;48772;55.586;37.730;2023-05-14T10:06:31;99890.75;;;21.88;41.20
62712;BME280;48772;55.586;37.730;2023-05-14T10:09:00;99895.44;;;22.66;40.55
62712;BME280;48772;55.586;37.730;2023-05-14T10:11:30;99890.00;;;22.87;39.39
62712;BME280;48772;55.586;37.730;2023-05-14T10:14:02;99902.94;;;22.28;40.04
62712;BME280;48772;55.586;37.730;2023-05-14T10:16:34;99906.00;;;21.89;41.68
62712;BME280;48772;55.586;37.730;2023-05-14T10:19:07;99896.41;;;21.21;42.01
62712;BME280;48772;55.586;37.730;2023-05-14T10:21:35;99883.38;;;20.79;42.00
62712;BME280;48772;55.586;37.730;2023-05-14T10:24:05;99899.69;;;20.49;42.72
62712;BME280;48772;55.586;37.730;2023-05-14T10:26:34;99905.59;;;20.52;42.84
62712;BME280;48772;55.586;37.730;2023-05-14T10:31:53;99892.22;;;21.47;42.20
62712;BME280;48772;55.586;37.730;2023-05-14T10:34:39;99895.91;;;21.83;40.03
62712;BME280;48772;55.586;37.730;2023-05-14T10:37:13;99895.94;;;22.04;39.57
62712;BME280;48772;55.586;37.730;2023-05-14T10:42:20;99892.88;;;21.35;40.48
62712;BME280;48772;55.586;37.730;2023-05-14T10:44:51;99858.75;;;20.66;41.43
62712;BME280;48772;55.586;37.730;2023-05-14T10:47:17;99874.34;;;20.64;42.63
62712;BME280;48772;55.586;37.730;2023-05-14T10:49:45;99893.19;;;20.58;43.29
62712;BME280;48772;55.586;37.730;2023-05-14T10:52:16;99879.63;;;20.35;43.79
62712;BME280;48772;55.586;37.730;2023-05-14T10:57:20;99880.56;;;19.81;44.17
62712;BME280;48772;55.586;37.730;2023-05-14T10:59:48;99894.84;;;19.75;44.14
62712;BME280;48772;55.586;37.730;2023-05-14T11:02:34;99894.50;;;19.78;44.49
62712;BME280;48772;55.586;37.730;2023-05-14T11:07:34;99891.56;;;19.80;43.67
62712;BME280;48772;55.586;37.730;2023-05-14T11:10:19;99897.41;;;19.99;43.73
62712;BME280;48772;55.586;37.730;2023-05-14T11:12:51;99894.97;;;20.20;43.38
62712;BME280;48772;55.586;37.730;2023-05-14T11:15:19;99874.91;;;20.29;42.54
62712;BME280;48772;55.586;37.730;2023-05-14T11:17:46;99880.53;;;20.50;42.34
62712;BME280;48772;55.586;37.730;2023-05-14T11:20:13;99865.97;;;20.29;42.67
62712;BME280;48772;55.586;37.730;2023-05-14T11:22:41;99891.50;;;20.34;43.18
62712;BME280;48772;55.586;37.730;2023-05-14T11:25:09;99865.22;;;20.12;43.62
62712;BME280;48772;55.586;37.730;2023-05-14T11:27:39;99865.25;;;20.04;44.07
62712;BME280;48772;55.586;37.730;2023-05-14T11:32:37;99892.13;;;19.75;44.45
62712;BME280;48772;55.586;37.730;2023-05-14T11:35:04;99891.91;;;19.85;44.85
62712;BME280;48772;55.586;37.730;2023-05-14T11:37:31;99893.75;;;19.84;44.90
62712;BME280;48772;55.586;37.730;2023-05-14T11:39:59;99890.41;;;19.82;45.25
62712;BME280;48772;55.586;37.730;2023-05-14T11:42:25;99869.78;;;19.73;45.36
62712;BME280;48772;55.586;37.730;2023-05-14T11:44:52;99883.44;;;19.88;45.18
62712;BME280;48772;55.586;37.730;2023-05-14T11:47:21;99878.25;;;19.78;45.32
62712;BME280;48772;55.586;37.730;2023-05-14T11:49:48;99879.94;;;19.79;44.85
62712;BME280;48772;55.586;37.730;2023-05-14T11:52:15;99876.31;;;19.87;44.73
62712;BME280;48772;55.586;37.730;2023-05-14T11:54:44;99875.16;;;19.89;44.72
62712;BME280;48772;55.586;37.730;2023-05-14T11:57:15;99872.41;;;19.97;44.69
62712;BME280;48772;55.586;37.730;2023-05-14T11:59:41;99863.53;;;20.03;44.64
62712;BME280;48772;55.586;37.730;2023-05-14T12:02:09;99850.75;;;19.97;44.34
62712;BME280;48772;55.586;37.730;2023-05-14T12:04:36;99883.72;;;20.31;44.37
62712;BME280;48772;55.586;37.730;2023-05-14T12:07:07;99876.56;;;20.38;44.06
62712;BME280;48772;55.586;37.730;2023-05-14T12:09:40;99882.28;;;20.43;44.41
62712;BME280;48772;55.586;37.730;2023-05-14T12:12:08;99882.16;;;20.37;44.74
62712;BME280;48772;55.586;37.730;2023-05-14T12:14:39;99873.44;;;20.49;44.25
62712;BME280;48772;55.586;37.730;2023-05-14T12:17:16;99877.31;;;20.55;44.34
62712;BME280;48772;55.586;37.730;2023-05-14T12:19:44;99866.56;;;20.61;44.48
62712;BME280;48772;55.586;37.730;2023-05-14T12:22:13;99872.84;;;20.39;44.24
62712;BME280;48772;55.586;37.730;2023-05-14T12:24:42;99854.31;;;20.51;45.13
62712;BME280;48772;55.586;37.730;2023-05-14T12:27:09;99870.31;;;20.60;44.93
62712;BME280;48772;55.586;37.730;2023-05-14T12:29:37;99872.94;;;20.68;44.67
62712;BME280;48772;55.586;37.730;2023-05-14T12:32:08;99866.72;;;20.45;45.24
62712;BME280;48772;55.586;37.730;2023-05-14T12:34:39;99872.00;;;20.61;45.20
62712;BME280;48772;55.586;37.730;2023-05-14T12:37:05;99881.94;;;20.46;45.74
62712;BME280;48772;55.586;37.730;2023-05-14T12:39:32;99854.81;;;20.24;46.32
62712;BME280;48772;55.586;37.730;2023-05-14T12:41:59;99839.94;;;20.20;46.06
62712;BME280;48772;55.586;37.730;2023-05-14T12:44:26;99840.63;;;20.22;45.71
62712;BME280;48772;55.586;37.730;2023-05-14T12:46:51;99867.00;;;20.50;45.17
62712;BME280;48772;55.586;37.730;2023-05-14T12:49:18;99867.78;;;20.59;44.76
62712;BME280;48772;55.586;37.730;2023-05-14T12:51:44;99866.09;;;20.58;44.41
62712;BME280;48772;55.586;37.730;2023-05-14T12:54:11;99869.34;;;20.53;44.36
62712;BME280;48772;55.586;37.730;2023-05-14T12:56:38;99870.44;;;20.44;44.29
62712;BME280;48772;55.586;37.730;2023-05-14T12:59:04;99876.44;;;20.54;44.90
62712;BME280;48772;55.586;37.730;2023-05-14T13:01:30;99865.06;;;20.36;45.55
62712;BME280;48772;55.586;37.730;2023-05-14T13:03:55;99863.69;;;20.18;45.58
62712;BME280;48772;55.586;37.730;2023-05-14T13:06:22;99873.66;;;20.17;46.18
62712;BME280;48772;55.586;37.730;2023-05-14T13:08:48;99826.72;;;19.94;47.01